Archival Weather

Chicago O'Hare International

Chicago, Illinois (KORD)

Report from: Monday, January 2, 2023 6:51 PM CST
Current time: Monday, June 17, 2024 3:43 AM CDT

Current weather – Weather history – Daily summaries
Weather forecast

Present weatherMist
Temperature3.9°C (39.0°F)
Wind chill0.4°C (32.8°F)
Dew point1.7°C (35.1°F)
Winds 8 kts (4.1 m/s, 9.2 mph) East-Northeast (70°)
Visibility1.5 mi. (2.4 km)
Clouds Ceiling: Overcast 200 ft. (61 m)
Altimeter29.99 in.Hg (1016 mB)
Relative humidity86 %
Density altitude-1,336 ft. (-407 m)
Sea-level pressure101.6 kPa (1016 mB, 30.00 in.Hg)
Remarks Automated weather observing station with precipitation discriminator
Flight conditions Low Instrument Meteorological Conditions
Raw dataKORD 030051Z 07008KT 1 1/2SM BR OVC002 04/02 A2999 RMK AO2 SLP160 T00390017
An error has occurred. This application may no longer respond until reloaded. Reload 🗙